Emmonak Airport Emmonak US
ICAO: PAEM
IATA:
Category: Medium
Scheduled Services:

Elevation: 13 ft
TransAlt. 18000 ft.

Airport Communications:
AWOS 3:135.35
ANCHORAGE CNTR:132.5
CTAF:122.9
KENAI RDO:122.55
TWEB:177.8

PAEM Zoom In..

If you have problems with the map follow the link
https://www.worldairports.se/pages/airport.php?
ICAO=PAEM

Runways:

(A) RW 16 length 4601 ft width 100 ft
---- / hdg 163

(B) RW 34 length 4601 ft width 100 ft
---- / hdg 343

Location; PAEM
Day. 23 / Time. 16.56 Zulu
* Altimeter: 29.29
* Temperature: 01° c. 33.8°f.
* Wind from: 350° Speed 05 kn.
Dewpoint: 01° c.
Visibility: 10 Statute Miles.
Clouds: Overcast 2400 ft.

PAEM 231656Z AUTO 35005KT 10SM OVC024 01/01 A2929 RMK AO2 SLP975 T00110006 FZRANO


Wind From 350°
Speed 05 kn.

 
 
jpsmedia.com for Web Design worldairports.se 2018   terms of use